Kezdőlap
METAR-TAF:

METAR-TAF

Repülőterek :

Ammán, Jordánia

földrajzi szélesség: 31-59N, földrajzi hosszúság: 035-59E, magasság: 767 m

Jelenlegi meteorológiai megfigyelések

A jelentés 1 órával és 1 perccel ezelõtt készült, 14:00 UTC
Északnyugati szél 8 kt
Hőmérséklet 31°C
Páratartalom 22%
Légköri nyomás 1017 hPa
Látótávolság: 6000 m

METAR: OJAM 231400Z 32008KT 6000 NSC 31/07 Q1017 NOSIG

Idő: 18:01 (15:01 UTC)

Előrejelzés

A jelentés 4 órával és 1 perccel ezelõtt készült, 11:00 UTC
Az előrejelzés 23-én 12 óra UTC és 24-én 18 óra UTC között érvényes
Nyugat-északnyugati szél 8 kt
Látótávolság: 5000 m
Száraz légköri homály
Valószínűség 30%
24-én 02 óra UTC és 24-én 06 óra UTC között
Különbözõ irányokból fújó szél 1 kt
Látótávolság: 4000 m

TAF: OJAM 231100Z 2312/2418 30008KT 5000 HZ NSC PROB30 2402/2406 VRB01KT 4000

Meteorológiai megfigyelések és előrejelzések több, mint 4000 repülőtéren (METAR és TAF jelentéseket).

A térképen piros és sárga pontok jelzik az elérhető meteorológiai állomásokat.

Mozgassa az egeret a pont fölött, hogy megjelenjen az állomás neve.

Azután kattintson az időjárási megfigyelések és előrejelzések megtekintéséhez.

A térkép megváltoztatása: kattintson a fekete keresztel jelölt zöld gombra ráközelítéshez, a vonallal jelölt zöld gombra távolításhoz, vagy a zöld nyilakra a szomszédos térképek eléréséhez.


METAR-TAF: